Flight Track Log - Related Links

Times and Time Zones

All times are in EST time to prevent confusion due to time zone crossing. See the N400PU flight status page for this flight to view local times or setup timezone preferences in your user account.

Time Position Orientation Groundspeed Altitude Reporting Facility
EST Latitude Longitude Course Direction KTS MPH feet Rate Location/Type
Mon 05:13:19 PM 41.7333 -87.8167 163° South 208 239 3,800  Level Chicago TRACON
Mon 05:14:19 PM 41.6833 -87.8000 166° South 251 289 6,300 2,579 Climbing Chicago TRACON
Mon 05:15:13 PM 41.6333 -87.7500 143° Southeast 271 312 8,700 2,316 Climbing Chicago TRACON
Mon 05:16:13 PM 41.5667 -87.7000 151° Southeast 288 331 10,700 1,456 Climbing Chicago TRACON
Mon 05:17:29 PM 41.4769 -87.6181 146° Southeast 300 345 12,000 522 Climbing Chicago Center
Mon 05:18:00 PM 41.4025 -87.5210 163° South  Level Estimated
Mon 05:18:31 PM 41.4000 -87.5683 154° Southeast 314 361 11,900  Level Chicago Center
Mon 05:19:33 PM 41.3056 -87.5528 173° South 338 389 11,900 -96 Level Chicago Center
Mon 05:20:36 PM 41.2086 -87.5350 172° South 348 400 11,700 -480 Descending Chicago Center
Mon 05:21:38 PM 41.1153 -87.4981 163° South 350 403 10,900 -774 Descending Chicago Center
Mon 05:22:40 PM 41.0308 -87.4636 163° South 329 379 10,100 -435 Descending Chicago Center
Mon 05:23:42 PM 40.9342 -87.4244 163° South 308 354 10,000 -71 Descending Chicago Center
Mon 05:24:05 PM 40.9050 -87.4122 162° South 291 335 10,000  Level Chicago Center
Mon 05:24:44 PM 40.8558 -87.3917 162° South 298 343 10,000 -455 Level Chicago Center
Mon 05:25:11 PM 40.8208 -87.3783 164° South 285 328 9,500 -1,452 Descending Chicago Center
Mon 05:25:46 PM 40.7858 -87.3650 164° South 267 307 8,500 -1,967 Descending Chicago Center
Mon 05:26:12 PM 40.7489 -87.3486 161° South 255 293 7,500 -1,935 Descending Chicago Center
Mon 05:26:48 PM 40.7186 -87.3367 163° South 256 295 6,500 -2,164 Descending Chicago Center
Mon 05:27:13 PM 40.6853 -87.3247 165° South 248 285 5,300 -1,935 Descending Chicago Center
Mon 05:27:50 PM 40.6544 -87.3086 158° South 248 285 4,500 -1,636 Descending Chicago Center
Mon 05:28:19 PM 40.6156 -87.2950 165° South 236 272 3,500 -1,452 Descending Chicago Center
Mon 05:28:52 PM 40.5861 -87.2817 161° South 229 264 3,000 -492 Descending Chicago Center
Mon 05:29:20 PM 40.5600 -87.2744 168° South 192 221 3,000  Level Chicago Center
Mon 05:29:54 PM 40.5406 -87.2631 156° South 198 228 3,000  Level Chicago Center
Mon 05:30:14 PM 40.5253 -87.2583 167° South 154 177 3,000  Level Chicago Center
Mon 05:30:56 PM 40.5017 -87.2478 161° South 167 192 3,000  Level Chicago Center
Mon 05:31:15 PM 40.4842 -87.2417 165° South 145 167 3,000  Level Chicago Center
Mon 05:31:58 PM 40.4606 -87.2275 155° Southeast 159 183 3,000  Level Chicago Center
Mon 05:32:16 PM 40.4500 -87.2119 132° Southeast 168 193 3,000  Level Chicago Center
Mon 05:33:00 PM 40.4222 -87.2028 166° South 159 183 3,000  Level Chicago Center
Mon 05:33:16 PM 40.4381 -87.1456 70° East 183 211 3,000 -156 Level Chicago Center
Mon 05:34:17 PM 40.4297 -87.0931 102° East 152 175 2,800 -446 Descending Chicago Center
Mon 05:35:17 PM 40.4253 -87.0489 98° East 108 124 2,100 -645 Descending Chicago Center
Mon 05:36:18 PM 40.4206 -87.0078 99° East 110 127 1,500 -590 Descending Chicago Center
Mon 05:38:00 PM 40.4000 -86.9333 108° East  Level FlightAware Approximate
Mon 05:45:00 PM 40.4123 -86.9369 108° East  Level Estimated

Login

Don't have an account? Register now (free) for customized features, flight alerts, and more!